createdAt,value
2022-12-26T00:01:39.648Z,96516.63
2022-12-26T00:04:50.127Z,96560.50
2022-12-26T00:06:56.848Z,96479.22
2022-12-26T00:09:25.173Z,96492.31
2022-12-26T00:11:53.521Z,96533.03
2022-12-26T00:14:21.800Z,96532.41
2022-12-26T00:16:51.451Z,96475.66
2022-12-26T00:19:19.805Z,96502.59
2022-12-26T00:21:48.252Z,96514.03
2022-12-26T00:24:16.563Z,96501.75
2022-12-26T00:26:44.829Z,96514.81
2022-12-26T00:29:13.124Z,96527.50
2022-12-26T00:31:41.467Z,96497.88
2022-12-26T00:34:11.712Z,96509.09
2022-12-26T00:36:40.409Z,96562.38
2022-12-26T00:39:13.937Z,96564.09
2022-12-26T00:41:42.172Z,96563.69
2022-12-26T00:44:10.430Z,96553.31
2022-12-26T00:46:38.748Z,96498.53
2022-12-26T00:49:07.406Z,96568.50
2022-12-26T00:51:36.999Z,96589.78
2022-12-26T00:54:05.380Z,96566.28
2022-12-26T00:56:33.628Z,96543.31
2022-12-26T00:59:02.091Z,96515.56
2022-12-26T01:01:32.676Z,96528.00
2022-12-26T01:04:07.573Z,96556.41
2022-12-26T01:06:37.261Z,96518.63
2022-12-26T01:09:05.609Z,96525.22
2022-12-26T01:11:42.756Z,96551.16
2022-12-26T01:14:15.004Z,96595.41
2022-12-26T01:16:48.022Z,96540.69
2022-12-26T01:19:16.362Z,96552.00
2022-12-26T01:21:46.011Z,96536.59
2022-12-26T01:24:14.855Z,96528.28
2022-12-26T01:26:43.172Z,96538.19
2022-12-26T01:29:11.582Z,96528.44
2022-12-26T01:31:39.845Z,96483.03
2022-12-26T01:34:08.175Z,96527.91
2022-12-26T01:36:36.542Z,96482.44
2022-12-26T01:39:06.162Z,96515.69
2022-12-26T01:41:34.455Z,96547.91
2022-12-26T01:44:05.498Z,96548.47
2022-12-26T01:46:39.920Z,96532.06
2022-12-26T01:49:21.263Z,96535.97
2022-12-26T01:51:55.130Z,96526.09
2022-12-26T01:54:39.040Z,96517.09
2022-12-26T01:57:15.550Z,96541.06
2022-12-26T01:59:46.321Z,96651.75
2022-12-26T02:02:15.619Z,96544.53
2022-12-26T02:05:06.320Z,96557.63
2022-12-26T02:07:37.137Z,96540.28
2022-12-26T02:10:11.282Z,96554.44
2022-12-26T02:12:39.656Z,96587.50
2022-12-26T02:15:11.701Z,96561.47
2022-12-26T02:17:40.899Z,96556.84
2022-12-26T02:20:18.938Z,96613.16
2022-12-26T02:23:32.180Z,96561.25
2022-12-26T02:26:37.256Z,96550.53
2022-12-26T02:30:09.116Z,96561.25
2022-12-26T02:33:15.064Z,96540.19
2022-12-26T02:36:13.068Z,96477.53
2022-12-26T02:38:56.451Z,96542.53
2022-12-26T02:41:29.245Z,96584.09
2022-12-26T02:44:23.885Z,96550.47
2022-12-26T02:47:04.922Z,96507.63
2022-12-26T02:50:20.803Z,96430.81
2022-12-26T02:53:21.041Z,96547.84
2022-12-26T02:56:11.951Z,96558.19
2022-12-26T02:59:06.195Z,96485.16
2022-12-26T03:02:03.978Z,96500.38
2022-12-26T03:04:55.341Z,96514.22
2022-12-26T03:07:47.352Z,96556.91
2022-12-26T03:10:50.480Z,96536.28
2022-12-26T03:13:23.931Z,96563.47
2022-12-26T03:16:13.473Z,96564.75
2022-12-26T03:18:58.417Z,96569.25
2022-12-26T03:21:35.209Z,96490.06
2022-12-26T03:24:03.493Z,96517.06
2022-12-26T03:26:41.771Z,96531.63
2022-12-26T03:29:31.209Z,96524.84
2022-12-26T03:32:01.590Z,96477.78
2022-12-26T03:34:30.672Z,96540.09
2022-12-26T03:37:49.730Z,96552.66
2022-12-26T03:41:09.937Z,96646.22
2022-12-26T03:44:25.058Z,96496.59
2022-12-26T03:47:38.709Z,96569.59
2022-12-26T03:50:37.430Z,96458.28
2022-12-26T03:53:32.961Z,96488.63
2022-12-26T03:56:28.059Z,96486.72
2022-12-26T03:59:23.095Z,96504.19
2022-12-26T04:02:10.531Z,96467.25
2022-12-26T04:05:01.417Z,96500.75
2022-12-26T04:07:56.091Z,96478.44
2022-12-26T04:10:54.271Z,96527.22
2022-12-26T04:13:44.681Z,96530.22
2022-12-26T04:16:36.341Z,96519.25
2022-12-26T04:19:25.308Z,96517.00
2022-12-26T04:22:18.181Z,96531.88
2022-12-26T04:25:11.899Z,96523.59
2022-12-26T04:27:59.189Z,96507.34
2022-12-26T04:30:44.877Z,96475.69
2022-12-26T04:33:37.598Z,96531.53
2022-12-26T04:36:29.053Z,96510.34
2022-12-26T04:39:21.917Z,96541.97
2022-12-26T04:42:09.174Z,96576.13
2022-12-26T04:44:39.753Z,96462.50
2022-12-26T04:47:08.128Z,96490.88
2022-12-26T04:50:01.812Z,96523.16
2022-12-26T04:52:51.328Z,96541.41
2022-12-26T04:55:20.438Z,96483.81
2022-12-26T04:57:48.584Z,96517.69
2022-12-26T05:00:19.211Z,96520.88
2022-12-26T05:03:04.822Z,96529.31
2022-12-26T05:05:59.242Z,96506.59
2022-12-26T05:08:53.144Z,96503.50
2022-12-26T05:11:21.353Z,96520.34
2022-12-26T05:13:49.547Z,96454.50
2022-12-26T05:16:36.879Z,96517.94
2022-12-26T05:19:22.893Z,96501.06
2022-12-26T05:22:09.135Z,96515.53
2022-12-26T05:24:58.416Z,96536.25
2022-12-26T05:27:53.171Z,96511.00
2022-12-26T05:30:21.557Z,96549.47
2022-12-26T05:33:08.930Z,96494.56
2022-12-26T05:35:37.469Z,96527.78
2022-12-26T05:38:06.184Z,96523.50
2022-12-26T05:40:34.410Z,96540.75
2022-12-26T05:43:02.569Z,96503.97
2022-12-26T05:45:30.811Z,96460.78
2022-12-26T05:48:01.192Z,96563.66
2022-12-26T05:50:30.017Z,96518.13
2022-12-26T05:52:58.434Z,96469.00
2022-12-26T05:55:27.992Z,96529.38
2022-12-26T05:57:56.515Z,96534.75
2022-12-26T06:00:24.678Z,96477.91
2022-12-26T06:02:52.935Z,96537.75
2022-12-26T06:05:23.085Z,96467.38
2022-12-26T06:07:51.284Z,96506.53
2022-12-26T06:10:19.731Z,96499.91
2022-12-26T06:12:47.923Z,96459.78
2022-12-26T06:15:17.430Z,96507.66
2022-12-26T06:17:45.776Z,96510.47
2022-12-26T06:20:14.121Z,96484.81
2022-12-26T06:22:43.774Z,96499.94
2022-12-26T06:25:11.970Z,96470.34
2022-12-26T06:27:40.160Z,96487.09
2022-12-26T06:30:09.569Z,96504.88
2022-12-26T06:32:37.755Z,96493.53
2022-12-26T06:35:08.056Z,96490.06
2022-12-26T06:37:36.624Z,96492.22
2022-12-26T06:40:08.352Z,96526.41
2022-12-26T06:42:36.543Z,96505.69
2022-12-26T06:45:05.338Z,96502.91
2022-12-26T06:47:33.511Z,96503.91
2022-12-26T06:50:01.654Z,96466.41
2022-12-26T06:52:29.939Z,96496.00
2022-12-26T06:54:58.884Z,96528.56
2022-12-26T06:57:28.444Z,96503.88
2022-12-26T06:59:56.675Z,96508.66
2022-12-26T07:02:25.082Z,96539.72
2022-12-26T07:04:53.427Z,96531.69
2022-12-26T07:07:21.614Z,96548.78
2022-12-26T07:09:49.799Z,96519.69
2022-12-26T07:12:20.841Z,96527.56
2022-12-26T07:14:50.939Z,96513.09
2022-12-26T07:17:20.156Z,96522.28
2022-12-26T07:19:48.732Z,96535.47
2022-12-26T07:22:16.945Z,96550.59
2022-12-26T07:24:45.134Z,96528.88
2022-12-26T07:27:13.317Z,96531.34
2022-12-26T07:29:41.463Z,96555.03
2022-12-26T07:32:11.032Z,96519.50
2022-12-26T07:34:39.406Z,96556.50
2022-12-26T07:37:07.599Z,96528.06
2022-12-26T07:39:37.677Z,96570.31
2022-12-26T07:42:06.250Z,96557.50
2022-12-26T07:44:34.692Z,96516.38
2022-12-26T07:47:03.040Z,96542.34
2022-12-26T07:49:32.655Z,96547.31
2022-12-26T07:52:01.838Z,96510.78
2022-12-26T07:54:32.164Z,96561.63
2022-12-26T07:57:29.648Z,96567.06
2022-12-26T07:59:51.987Z,96642.66
2022-12-26T08:02:21.720Z,96570.50
2022-12-26T08:04:51.473Z,96605.84
2022-12-26T08:07:19.704Z,96572.63
2022-12-26T08:09:47.841Z,96576.53
2022-12-26T08:12:16.076Z,96585.41
2022-12-26T08:14:44.262Z,96585.06
2022-12-26T08:17:12.496Z,96596.75
2022-12-26T08:19:41.034Z,96561.22
2022-12-26T08:22:10.686Z,96570.91
2022-12-26T08:24:38.848Z,96567.59
2022-12-26T08:27:07.082Z,96581.41
2022-12-26T08:29:35.296Z,96614.28
2022-12-26T08:32:03.654Z,96556.72
2022-12-26T08:34:34.666Z,96579.44
2022-12-26T08:37:02.957Z,96536.19
2022-12-26T08:39:32.506Z,96585.31
2022-12-26T08:42:00.746Z,96599.44
2022-12-26T08:44:29.347Z,96585.50
2022-12-26T08:46:57.829Z,96570.88
2022-12-26T08:49:26.125Z,96547.03
2022-12-26T08:51:54.337Z,96604.56
2022-12-26T08:54:22.962Z,96574.97
2022-12-26T08:56:52.560Z,96581.72
2022-12-26T08:59:20.949Z,96599.44
2022-12-26T09:01:49.291Z,96611.75
2022-12-26T09:04:44.814Z,96608.47
2022-12-26T09:07:20.202Z,96598.44
2022-12-26T09:09:49.245Z,96578.81
2022-12-26T09:12:18.775Z,96593.47
2022-12-26T09:14:50.137Z,96608.50
2022-12-26T09:17:18.871Z,96548.91
2022-12-26T09:19:47.051Z,96612.19
2022-12-26T09:22:35.171Z,96637.84
2022-12-26T09:25:03.761Z,96567.97
2022-12-26T09:27:33.275Z,96630.84
2022-12-26T09:30:03.025Z,96675.38
2022-12-26T09:32:34.298Z,96663.00
2022-12-26T09:35:02.770Z,96620.00
2022-12-26T09:37:31.023Z,96642.59
2022-12-26T09:39:59.435Z,96698.38
2022-12-26T09:42:37.850Z,96672.75
2022-12-26T09:45:13.687Z,96652.69
2022-12-26T09:47:53.023Z,96698.66
2022-12-26T09:50:28.592Z,96669.84
2022-12-26T09:52:59.621Z,96617.16
2022-12-26T09:55:41.383Z,96664.00
2022-12-26T09:58:23.270Z,96686.31
2022-12-26T10:00:54.950Z,96688.34
2022-12-26T10:03:24.783Z,96667.25
2022-12-26T10:06:12.956Z,96636.72
2022-12-26T10:09:13.955Z,96677.69
2022-12-26T10:12:12.437Z,96682.78
2022-12-26T10:14:52.655Z,96713.25
2022-12-26T10:17:30.312Z,96711.72
2022-12-26T10:20:24.083Z,96703.31
2022-12-26T10:23:33.298Z,96694.91
2022-12-26T10:26:10.710Z,96687.81
2022-12-26T10:28:44.627Z,96660.06
2022-12-26T10:31:20.388Z,96731.00
2022-12-26T10:33:54.829Z,96685.34
2022-12-26T10:36:33.913Z,96738.13
2022-12-26T10:39:05.961Z,96673.28
2022-12-26T10:41:42.985Z,96770.47
2022-12-26T10:44:14.075Z,96743.38
2022-12-26T10:47:20.504Z,96698.34
2022-12-26T10:49:49.774Z,96712.00
2022-12-26T10:52:27.810Z,96676.91
2022-12-26T10:55:29.507Z,96757.47
2022-12-26T10:57:51.168Z,96665.81
2022-12-26T11:00:23.115Z,96736.47
2022-12-26T11:03:07.592Z,96716.03
2022-12-26T11:06:06.494Z,96674.97
2022-12-26T11:08:36.236Z,96719.41
2022-12-26T11:11:11.334Z,96746.19
2022-12-26T11:13:49.962Z,96734.03
2022-12-26T11:16:27.046Z,96677.00
2022-12-26T11:18:58.456Z,96737.34
2022-12-26T11:21:29.635Z,96702.25
2022-12-26T11:24:20.428Z,96704.44
2022-12-26T11:26:49.176Z,96691.97
2022-12-26T11:29:20.995Z,96727.22
2022-12-26T11:31:55.327Z,96746.34
2022-12-26T11:34:34.541Z,96706.59
2022-12-26T11:37:04.644Z,96634.19
2022-12-26T11:39:37.182Z,96718.44
2022-12-26T11:42:12.387Z,96689.81
2022-12-26T11:44:45.477Z,96711.53
2022-12-26T11:47:17.327Z,96701.81
2022-12-26T11:49:58.735Z,96683.31
2022-12-26T11:52:38.756Z,96745.97
2022-12-26T11:55:33.736Z,96688.53
2022-12-26T11:58:16.303Z,96653.81
2022-12-26T12:01:05.853Z,96658.41
2022-12-26T12:03:38.617Z,96666.84
2022-12-26T12:06:44.018Z,96705.22
2022-12-26T12:09:21.325Z,96651.66
2022-12-26T12:11:56.787Z,96681.19
2022-12-26T12:14:41.516Z,96701.34
2022-12-26T12:17:22.746Z,96692.28
2022-12-26T12:20:13.023Z,96677.94
2022-12-26T12:23:26.151Z,96752.19
2022-12-26T12:26:11.827Z,96715.44
2022-12-26T12:29:16.243Z,96714.41
2022-12-26T12:32:02.088Z,96700.16
2022-12-26T12:34:52.897Z,96671.81
2022-12-26T12:37:30.687Z,96666.34
2022-12-26T12:40:15.215Z,96695.13
2022-12-26T12:42:55.035Z,96667.91
2022-12-26T12:45:33.061Z,96661.25
2022-12-26T12:48:27.419Z,96657.94
2022-12-26T12:51:06.047Z,96661.16
2022-12-26T12:53:55.863Z,96661.25
2022-12-26T12:56:42.155Z,96667.38
2022-12-26T12:59:25.406Z,96635.28
2022-12-26T13:02:04.108Z,96628.34
2022-12-26T13:04:47.035Z,96683.22
2022-12-26T13:07:21.653Z,96666.41
2022-12-26T13:09:53.996Z,96673.09
2022-12-26T13:12:30.276Z,96637.94
2022-12-26T13:15:02.613Z,96670.94
2022-12-26T13:17:34.861Z,96702.94
2022-12-26T13:20:07.633Z,96695.59
2022-12-26T13:22:54.216Z,96687.72
2022-12-26T13:25:26.585Z,96687.03
2022-12-26T13:28:09.246Z,96628.63
2022-12-26T13:30:39.658Z,96572.13
2022-12-26T13:33:13.638Z,96621.91
2022-12-26T13:35:55.153Z,96622.53
2022-12-26T13:38:25.982Z,96682.75
2022-12-26T13:41:21.662Z,96679.09
2022-12-26T13:44:05.598Z,96710.94
2022-12-26T13:46:55.811Z,96698.03
2022-12-26T13:49:36.269Z,96694.75
2022-12-26T13:52:33.780Z,96696.41
2022-12-26T13:55:34.854Z,96680.19
2022-12-26T13:58:38.489Z,96676.16
2022-12-26T14:01:26.959Z,96652.97
2022-12-26T14:04:19.760Z,96676.31
2022-12-26T14:07:07.620Z,96682.03
2022-12-26T14:09:59.819Z,96619.94
2022-12-26T14:12:55.496Z,96668.94
2022-12-26T14:15:31.427Z,96693.41
2022-12-26T14:18:18.561Z,96695.72
2022-12-26T14:20:57.087Z,96718.78
2022-12-26T14:23:42.024Z,96679.31
2022-12-26T14:26:27.584Z,96663.78
2022-12-26T14:29:06.400Z,96663.78
2022-12-26T14:31:47.894Z,96665.66
2022-12-26T14:34:42.808Z,96646.09
2022-12-26T14:37:21.292Z,96712.88
2022-12-26T14:40:08.164Z,96706.59
2022-12-26T14:43:14.015Z,96653.69
2022-12-26T14:45:47.877Z,96633.94
2022-12-26T14:48:48.990Z,96682.34
2022-12-26T14:51:38.869Z,96698.09
2022-12-26T14:54:50.876Z,96644.84
2022-12-26T14:57:53.458Z,96695.44
2022-12-26T15:00:36.480Z,96666.72
2022-12-26T15:03:50.936Z,96677.66
2022-12-26T15:07:20.604Z,96627.28
2022-12-26T15:10:28.664Z,96642.22
2022-12-26T15:14:01.831Z,96664.81
2022-12-26T15:16:58.724Z,96654.28
2022-12-26T15:19:59.251Z,96628.03
2022-12-26T15:23:03.382Z,96659.09
2022-12-26T15:26:08.473Z,96693.84
2022-12-26T15:29:29.149Z,96646.47
2022-12-26T15:32:07.419Z,96663.47
2022-12-26T15:34:57.197Z,96666.09
2022-12-26T15:37:43.195Z,96629.97
2022-12-26T15:40:17.463Z,96679.72
2022-12-26T15:43:19.447Z,96648.25
2022-12-26T15:45:54.737Z,96685.75
2022-12-26T15:48:41.214Z,96708.28
2022-12-26T15:51:14.679Z,96664.69
2022-12-26T15:54:03.139Z,96647.16
2022-12-26T15:56:59.252Z,96651.56
2022-12-26T16:00:01.336Z,96702.34
2022-12-26T16:02:42.569Z,96563.88
2022-12-26T16:05:38.983Z,96675.16
2022-12-26T16:08:57.346Z,96699.84
2022-12-26T16:11:31.195Z,96678.84
2022-12-26T16:14:02.945Z,96679.44
2022-12-26T16:16:35.172Z,96630.13
2022-12-26T16:19:18.195Z,96698.88
2022-12-26T16:22:08.781Z,96720.09
2022-12-26T16:24:42.013Z,96697.19
2022-12-26T16:27:16.588Z,96675.38
2022-12-26T16:29:48.777Z,96675.38
2022-12-26T16:32:22.779Z,96638.69
2022-12-26T16:34:51.762Z,96650.78
2022-12-26T16:37:22.923Z,96681.97
2022-12-26T16:40:21.458Z,96664.31
2022-12-26T16:42:59.687Z,96675.97
2022-12-26T16:45:30.379Z,96592.22
2022-12-26T16:47:59.093Z,96677.00
2022-12-26T16:50:32.911Z,96696.19
2022-12-26T16:53:12.721Z,96672.34
2022-12-26T16:55:47.741Z,96683.00
2022-12-26T16:58:25.781Z,96676.09
2022-12-26T17:01:09.601Z,96607.41
2022-12-26T17:03:48.848Z,96644.78
2022-12-26T17:06:31.733Z,96672.75
2022-12-26T17:09:07.595Z,96675.16
2022-12-26T17:11:41.111Z,96665.88
2022-12-26T17:14:21.410Z,96723.94
2022-12-26T17:16:59.327Z,96608.53
2022-12-26T17:19:31.646Z,96655.59
2022-12-26T17:22:23.359Z,96667.03
2022-12-26T17:24:53.091Z,96667.66
2022-12-26T17:27:25.204Z,96671.47
2022-12-26T17:29:58.691Z,96680.31
2022-12-26T17:32:35.997Z,96671.31
2022-12-26T17:35:08.535Z,96691.78
2022-12-26T17:37:37.070Z,96620.22
2022-12-26T17:40:22.861Z,96675.56
2022-12-26T17:42:55.655Z,96542.44
2022-12-26T17:45:26.294Z,96646.06
2022-12-26T17:47:56.058Z,96651.69
2022-12-26T17:50:30.256Z,96679.84
2022-12-26T17:53:05.864Z,96632.97
2022-12-26T17:55:34.463Z,96694.91
2022-12-26T17:58:04.007Z,96698.09
2022-12-26T18:00:32.255Z,96656.44
2022-12-26T18:03:00.568Z,96655.75
2022-12-26T18:05:29.700Z,96713.88
2022-12-26T18:07:57.964Z,96729.00
2022-12-26T18:10:30.742Z,96673.72
2022-12-26T18:13:00.266Z,96670.53
2022-12-26T18:15:31.896Z,96673.28
2022-12-26T18:18:01.788Z,96594.31
2022-12-26T18:20:31.126Z,96711.38
2022-12-26T18:22:59.255Z,96671.13
2022-12-26T18:25:27.845Z,96694.59
2022-12-26T18:27:56.093Z,96711.25
2022-12-26T18:30:26.533Z,96686.31
2022-12-26T18:32:56.127Z,96832.97
2022-12-26T18:35:25.173Z,96723.78
2022-12-26T18:37:54.414Z,96721.28
2022-12-26T18:40:30.708Z,96697.59
2022-12-26T18:42:58.947Z,96662.56
2022-12-26T18:45:27.210Z,96708.06
2022-12-26T18:47:57.126Z,96704.78
2022-12-26T18:50:25.800Z,96766.28
2022-12-26T18:52:54.289Z,96744.22
2022-12-26T18:55:22.988Z,96803.00
2022-12-26T18:57:51.921Z,96823.38
2022-12-26T19:00:22.225Z,96799.16
2022-12-26T19:02:52.086Z,96737.19
2022-12-26T19:05:26.112Z,96763.69
2022-12-26T19:07:55.543Z,96838.50
2022-12-26T19:10:26.286Z,96778.00
2022-12-26T19:12:57.388Z,96823.91
2022-12-26T19:15:29.475Z,96764.25
2022-12-26T19:17:57.681Z,96828.97
2022-12-26T19:20:28.688Z,96848.03
2022-12-26T19:22:58.179Z,96803.38
2022-12-26T19:25:26.952Z,96858.75
2022-12-26T19:27:56.284Z,96779.66
2022-12-26T19:30:24.736Z,96780.78
2022-12-26T19:32:53.067Z,96814.41
2022-12-26T19:35:21.732Z,96806.53
2022-12-26T19:37:51.288Z,96833.41
2022-12-26T19:40:24.775Z,96803.06
2022-12-26T19:42:53.493Z,96871.66
2022-12-26T19:45:21.933Z,96808.72
2022-12-26T19:47:50.146Z,96839.72
2022-12-26T19:50:21.757Z,96844.94
2022-12-26T19:52:51.301Z,96814.91
2022-12-26T19:55:19.623Z,96817.00
2022-12-26T19:57:47.790Z,96798.13
2022-12-26T20:00:16.334Z,96849.34
2022-12-26T20:02:44.568Z,96894.56
2022-12-26T20:05:12.923Z,96782.13
2022-12-26T20:07:41.184Z,96843.16
2022-12-26T20:10:11.127Z,96882.38
2022-12-26T20:12:39.288Z,96841.50
2022-12-26T20:15:08.882Z,96902.19
2022-12-26T20:17:37.173Z,96884.75
2022-12-26T20:20:06.682Z,96845.22
2022-12-26T20:22:34.877Z,96876.59
2022-12-26T20:25:04.119Z,96927.28
2022-12-26T20:27:33.776Z,96934.16
2022-12-26T20:30:01.962Z,96917.94
2022-12-26T20:32:30.108Z,96967.75
2022-12-26T20:34:58.277Z,96901.53
2022-12-26T20:37:27.416Z,96887.59
2022-12-26T20:39:59.121Z,96964.16
2022-12-26T20:42:27.291Z,96909.13
2022-12-26T20:44:56.823Z,96917.34
2022-12-26T20:47:25.058Z,96918.72
2022-12-26T20:49:53.201Z,96879.47
2022-12-26T20:52:21.544Z,96886.84
2022-12-26T20:54:49.706Z,96947.78
2022-12-26T20:57:17.898Z,96958.91
2022-12-26T20:59:46.067Z,96884.81
2022-12-26T21:02:15.868Z,96923.94
2022-12-26T21:04:44.147Z,96948.84
2022-12-26T21:07:12.357Z,96915.19
2022-12-26T21:09:46.002Z,96948.84
2022-12-26T21:12:15.017Z,96970.97
2022-12-26T21:14:43.236Z,96928.28
2022-12-26T21:17:11.592Z,97011.94
2022-12-26T21:19:41.224Z,97087.47
2022-12-26T21:22:09.472Z,96976.66
2022-12-26T21:24:37.963Z,96915.47
2022-12-26T21:27:06.183Z,97009.09
2022-12-26T21:29:36.142Z,97019.56
2022-12-26T21:32:06.209Z,97041.44
2022-12-26T21:34:35.407Z,96919.78
2022-12-26T21:37:22.758Z,96979.69
2022-12-26T21:39:50.963Z,97011.84
2022-12-26T21:42:19.640Z,97048.00
2022-12-26T21:44:47.874Z,97004.19
2022-12-26T21:47:16.139Z,97013.88
2022-12-26T21:49:44.298Z,97019.16
2022-12-26T21:52:14.406Z,97002.22
2022-12-26T21:55:00.004Z,97046.72
2022-12-26T21:57:35.132Z,97070.97
2022-12-26T22:00:04.154Z,97076.44
2022-12-26T22:02:52.472Z,97060.19
2022-12-26T22:05:24.125Z,97177.75
2022-12-26T22:07:56.355Z,97059.59
2022-12-26T22:10:42.972Z,97042.84
2022-12-26T22:13:11.562Z,96962.66
2022-12-26T22:16:00.929Z,97081.56
2022-12-26T22:18:30.184Z,97062.00
2022-12-26T22:21:03.553Z,97094.94
2022-12-26T22:23:33.190Z,97070.72
2022-12-26T22:26:01.574Z,97084.16
2022-12-26T22:28:30.611Z,97124.31
2022-12-26T22:31:00.552Z,97115.66
2022-12-26T22:33:30.710Z,97145.13
2022-12-26T22:36:06.691Z,97045.38
2022-12-26T22:38:37.516Z,97100.03
2022-12-26T22:41:07.089Z,97125.31
2022-12-26T22:43:36.557Z,97124.25
2022-12-26T22:46:04.770Z,97124.84
2022-12-26T22:48:32.973Z,97147.50
2022-12-26T22:51:01.276Z,97164.94
2022-12-26T22:53:31.321Z,97196.81
2022-12-26T22:56:03.730Z,97207.06
2022-12-26T22:58:33.418Z,97095.28
2022-12-26T23:01:02.144Z,97065.16
2022-12-26T23:03:30.549Z,97211.63
2022-12-26T23:05:59.546Z,97188.13
2022-12-26T23:08:29.996Z,97124.88
2022-12-26T23:11:01.235Z,97165.66
2022-12-26T23:13:30.478Z,97257.25
2022-12-26T23:16:04.727Z,97181.22
2022-12-26T23:18:57.404Z,97147.25
2022-12-26T23:21:43.040Z,97211.78
2022-12-26T23:24:16.353Z,97228.81
2022-12-26T23:26:49.629Z,97217.44
2022-12-26T23:29:54.267Z,97239.44
2022-12-26T23:32:22.445Z,97181.97
2022-12-26T23:34:50.635Z,97206.13
2022-12-26T23:37:19.513Z,97121.72
2022-12-26T23:39:47.708Z,97194.88
2022-12-26T23:42:17.243Z,97223.56
2022-12-26T23:44:45.453Z,97222.59
2022-12-26T23:47:13.812Z,97232.19
2022-12-26T23:49:41.963Z,97210.78
2022-12-26T23:52:10.155Z,97243.66
2022-12-26T23:54:38.332Z,97229.44
2022-12-26T23:57:06.598Z,97259.13
2022-12-26T23:59:36.064Z,97285.59
